Latest Coastal Weather Observations for Lucinda

IDQ60701

Issued at 10:55 am EST Thursday 24 April 2014 (issued every 10 minutes, with the page automatically refreshed every 10 minutes)

About coastal observations | Map of coastal stations | Coastal observations for QLD | Marine services | Other Formats
Station Details ID: 032141 Name: LUCINDA POINT Lat: -18.52 Lon: 146.39 Height: 10.0 m
Data from the previous 72 hours. | See also: Recent months for locations in Queensland
Date/Time
EST
Temp

°C
Wind Pressure Rain
since 9am
mm
Weather Cloud Vis
km
Sea
Height
m
Swell
Dir
 
Speed
knots
Gust
knots
hPa Trend Height
m
Period
s
Dir
24/10:30am 25.7 S 14 18 1013.2 - 0.0 - - - - - - -
24/10:00am 25.7 S 10 18 1013.3 - 0.0 - - - - - - -
24/09:30am 25.8 S 15 19 1013.4 - 0.0 - - - - - - -
24/09:00am 25.7 S 13 16 1013.1 - 0.0 - - - - - - -
24/08:30am 25.1 S 13 16 1013.1 - 0.0 - - - - - - -
24/08:00am 24.8 S 13 17 1012.9 - 0.0 - - - - - - -
24/07:30am 25.2 S 12 16 1012.6 - 0.0 - - - - - - -
24/07:00am 25.0 S 14 19 1012.3 - 0.0 - - - - - - -
24/06:30am 24.6 S 17 24 1011.9 - 0.0 - - - - - - -
24/06:00am 24.2 SSE 17 23 1011.7 - 0.0 - - - - - - -
24/05:30am 25.1 S 17 19 1011.2 - 0.0 - - - - - - -
24/05:00am 25.0 S 16 20 1011.3 - 0.0 - - - - - - -
24/04:30am 25.2 S 14 18 1011.4 - 0.0 - - - - - - -
24/04:00am 25.1 S 14 17 1011.4 - 0.0 - - - - - - -
24/03:30am 25.1 S 13 16 1011.4 - 0.0 - - - - - - -
24/03:00am 25.3 S 14 19 1011.3 - 0.0 - - - - - - -
24/02:30am 25.4 S 11 15 1011.6 - 0.0 - - - - - - -
24/02:00am 25.5 S 11 15 1011.6 - 0.0 - - - - - - -
24/01:30am 25.4 SSE 13 17 1012.1 - 0.0 - - - - - - -
24/01:00am 25.5 SSE 14 17 1012.6 - 0.0 - - - - - - -
24/12:30am 25.5 SSE 16 19 1013.1 - 0.0 - - - - - - -
24/12:00am 25.5 SSE 15 19 1013.2 - 0.0 - - - - - - -
 
Date/Time
EST
Temp

°C
Wind Pressure Rain
since 9am
mm
Weather Cloud Vis
km
Sea
Height
m
Swell
Dir
 
Speed
knots
Gust
knots
hPa Trend Height
m
Period
s
Dir
23/11:30pm 25.5 SSE 16 20 1013.5 - 0.0 - - - - - - -
23/11:00pm 25.6 SSE 19 22 1013.9 - 0.0 - - - - - - -
23/10:30pm 25.9 SSE 19 23 1013.9 - 0.0 - - - - - - -
23/10:00pm 26.1 SSE 19 22 1013.9 - 0.0 - - - - - - -
23/09:30pm 26.3 SSE 18 21 1013.7 - 0.0 - - - - - - -
23/09:00pm 26.5 SSE 16 19 1013.5 - 0.0 - - - - - - -
23/08:30pm 26.6 SSE 15 18 1013.4 - 0.0 - - - - - - -
23/08:00pm 26.7 S 7 11 1013.1 - 0.0 - - - - - - -
23/07:30pm 26.7 S 9 11 1012.8 - 0.0 - - - - - - -
23/07:00pm 26.7 S 6 8 1012.4 - 0.0 - - - - - - -
23/06:30pm 26.8 SE 7 9 1012.1 - 0.0 - - - - - - -
23/06:00pm 26.7 SSE 7 10 1011.9 - 0.0 - - - - - - -
23/05:30pm 26.7 SSE 8 10 1011.7 - 0.0 - - - - - - -
23/05:00pm 26.7 SSE 8 9 1011.5 - 0.0 - - - - - - -
23/04:30pm 26.7 SSE 9 12 1011.3 - 0.0 - - - - - - -
23/04:00pm 26.7 SE 13 16 1011.2 - 0.0 - - - - - - -
23/03:30pm 26.6 ESE 13 15 1011.1 - 0.0 - - - - - - -
23/03:00pm 26.6 SSE 11 15 1011.4 - 0.0 - - - - - - -
23/02:30pm 26.5 SSE 14 17 1011.6 - 0.0 - - - - - - -
23/02:00pm 26.4 SSE 14 18 1011.8 - 0.0 - - - - - - -
23/01:30pm 26.4 SSE 12 15 1012.0 - 0.0 - - - - - - -
23/01:00pm 26.2 SSE 12 17 1012.5 - 0.0 - - - - - - -
23/12:30pm 26.0 SSE 15 17 1013.1 - 0.0 - - - - - - -
23/12:00pm 25.6 SSE 14 18 1013.7 - 0.0 - - - - - - -
23/11:30am 25.8 SSE 13 16 1014.2 - 0.0 - - - - - - -
23/11:00am 25.6 SSE 14 17 1014.6 - 0.0 - - - - - - -
23/10:30am 25.5 SSE 15 19 1014.4 - 0.0 - - - - - - -
23/10:00am 25.7 SSE 14 18 1014.7 - 0.0 - - - - - - -
23/09:30am 25.4 SSE 15 18 1014.6 - 0.0 - - - - - - -
23/09:00am 25.4 SSE 16 19 1014.5 - 0.0 - - - - - - -
23/08:30am 25.3 SSE 14 18 1014.4 - 0.0 - - - - - - -
23/08:00am 25.3 SSE 14 17 1014.1 - 0.0 - - - - - - -
23/07:30am 25.1 S 14 16 1014.0 - 0.0 - - - - - - -
23/07:00am 25.1 S 12 17 1013.7 - 0.0 - - - - - - -
23/06:30am 25.1 S 11 14 1013.5 - 0.0 - - - - - - -
23/06:00am 25.1 SSE 11 15 1013.1 - 0.0 - - - - - - -
23/05:30am 25.0 S 12 15 1013.0 - 0.0 - - - - - - -
23/05:00am 25.0 S 11 15 1012.8 - 0.0 - - - - - - -
23/04:30am 25.0 SSE 12 16 1013.0 - 0.0 - - - - - - -
23/04:00am 25.0 S 13 17 1013.0 - 0.0 - - - - - - -
23/03:30am 24.9 S 13 16 1013.0 - 0.0 - - - - - - -
23/03:00am 25.2 SSE 14 17 1013.1 - 0.0 - - - - - - -
23/02:30am 25.6 SSE 9 14 1013.4 - 0.0 - - - - - - -
23/02:00am 25.6 SSE 10 13 1013.6 - 0.0 - - - - - - -
23/01:30am 25.6 SSE 9 13 1014.0 - 0.0 - - - - - - -
23/01:00am 25.8 SE 11 15 1014.4 - 0.0 - - - - - - -
23/12:30am 25.8 SE 10 14 1014.8 - 0.0 - - - - - - -
23/12:00am 25.8 SE 11 14 1014.9 - 0.0 - - - - - - -
 
Date/Time
EST
Temp

°C
Wind Pressure Rain
since 9am
mm
Weather Cloud Vis
km
Sea
Height
m
Swell
Dir
 
Speed
knots
Gust
knots
hPa Trend Height
m
Period
s
Dir
22/11:30pm 25.8 SE 12 17 1015.1 - 0.0 - - - - - - -
22/11:00pm 25.9 SE 11 16 1015.1 - 0.0 - - - - - - -
22/10:30pm 25.9 SE 12 15 1015.3 - 0.0 - - - - - - -
22/10:00pm 25.9 SE 12 16 1015.5 - 0.0 - - - - - - -
22/09:30pm 25.8 SE 13 16 1015.7 - 0.0 - - - - - - -
22/09:00pm 25.7 SE 13 17 1015.6 - 0.0 - - - - - - -
22/08:30pm 25.7 SSE 13 16 1015.7 - 0.0 - - - - - - -
22/08:00pm 25.7 SE 14 17 1015.5 - 0.0 - - - - - - -
22/07:30pm 25.7 SE 13 17 1015.2 - 0.0 - - - - - - -
22/07:00pm 25.6 SE 13 16 1015.0 - 0.0 - - - - - - -
22/06:30pm 25.7 SE 14 17 1014.8 - 0.0 - - - - - - -
22/06:00pm 25.7 SE 12 17 1014.6 - 0.0 - - - - - - -
22/05:30pm 25.7 SE 11 17 1014.4 - 0.0 - - - - - - -
22/05:00pm 25.7 SE 13 16 1014.3 - 0.0 - - - - - - -
22/04:30pm 25.9 SE 11 17 1014.2 - 0.0 - - - - - - -
22/04:00pm 26.1 SE 12 16 1014.2 - 0.0 - - - - - - -
22/03:30pm 26.1 SE 9 14 1014.1 - 0.0 - - - - - - -
22/03:00pm 26.2 SE 9 14 1014.1 - 0.0 - - - - - - -
22/02:30pm 25.9 SSE 9 12 1014.2 - 0.0 - - - - - - -
22/02:00pm 25.8 SE 11 14 1014.5 - 0.0 - - - - - - -
22/01:30pm 26.0 SE 10 15 1014.8 - 0.0 - - - - - - -
22/01:00pm 26.3 SE 10 14 1015.1 - 0.0 - - - - - - -
22/12:30pm 26.5 SE 9 14 1015.3 - 0.0 - - - - - - -
22/12:00pm 26.2 SE 10 14 1015.7 - 0.0 - - - - - - -
22/11:30am 27.1 E 7 13 1016.2 - 0.0 - - - - - - -
22/11:00am 26.9 ESE 7 13 1016.7 - 0.0 - - - - - - -
22/10:30am 26.5 ESE 8 13 1017.1 - 0.0 - - - - - - -
22/10:00am 26.5 ESE 8 13 1017.0 - 0.0 - - - - - - -
22/09:30am 26.5 ESE 9 13 1017.0 - 0.0 - - - - - - -
22/09:00am 26.6 ESE 8 13 1016.7 - 0.0 - - - - - - -
22/08:30am 26.5 ESE 7 12 1016.6 - 0.0 - - - - - - -
22/08:00am 26.4 E 8 14 1016.4 - 0.0 - - - - - - -
22/07:30am 26.3 ESE 8 13 1016.2 - 0.0 - - - - - - -
22/07:00am 26.0 E 9 16 1015.9 - 0.0 - - - - - - -
22/06:30am 26.1 ESE 7 12 1015.6 - 0.0 - - - - - - -
22/06:00am 26.1 ESE 6 12 1015.2 - 0.0 - - - - - - -
22/05:30am 26.2 ESE 6 12 1015.2 - 0.0 - - - - - - -
22/05:00am 26.1 ESE 7 11 1014.8 - 0.0 - - - - - - -
22/04:30am 26.2 E 7 15 1014.8 - 0.0 - - - - - - -
22/04:00am 26.1 ESE 6 12 1014.7 - 0.0 - - - - - - -
22/03:30am 26.1 ESE 6 11 1014.8 - 0.0 - - - - - - -
22/03:00am 26.2 E 7 15 1014.7 - 0.0 - - - - - - -
22/02:30am 26.1 ESE 7 13 1015.1 - 0.0 - - - - - - -
22/02:00am 26.2 ESE 8 13 1015.3 - 0.0 - - - - - - -
22/01:30am 26.2 ESE 8 13 1015.5 - 0.0 - - - - - - -
22/01:00am 26.3 ESE 8 15 1016.0 - 0.0 - - - - - - -
22/12:30am 26.3 SSE 5 10 1016.3 - 0.0 - - - - - - -
22/12:00am 26.4 E 7 14 1016.4 - 0.0 - - - - - - -
 
Date/Time
EST
Temp

°C
Wind Pressure Rain
since 9am
mm
Weather Cloud Vis
km
Sea
Height
m
Swell
Dir
 
Speed
knots
Gust
knots
hPa Trend Height
m
Period
s
Dir
21/11:30pm 26.4 ESE 6 12 1016.4 - 0.0 - - - - - - -
21/11:00pm 26.5 ESE 7 11 1016.4 - 0.0 - - - - - - -
21/10:30pm 26.5 SE 6 13 1016.6 - 0.0 - - - - - - -
21/10:00pm 26.6 ESE 7 12 1016.6 - 0.0 - - - - - - -
21/09:30pm 26.5 SE 6 13 1016.6 - 0.0 - - - - - - -
21/09:00pm 26.5 ESE 6 11 1016.4 - 0.0 - - - - - - -
21/08:30pm 26.5 SE 7 11 1016.6 - 0.0 - - - - - - -
21/08:00pm 26.4 E 8 14 1016.4 - 0.0 - - - - - - -
21/07:30pm 26.4 E 8 12 1016.2 - 0.0 - - - - - - -
21/07:00pm 26.3 SE 6 11 1015.9 - 0.0 - - - - - - -
21/06:30pm 26.3 E 8 13 1015.7 - 0.0 - - - - - - -
21/06:00pm 26.3 ESE 8 13 1015.3 - 0.0 - - - - - - -
21/05:30pm 26.3 ESE 8 13 1015.2 - 0.0 - - - - - - -
21/05:00pm 26.4 E 7 12 1014.9 - 0.0 - - - - - - -
21/04:30pm 26.4 ESE 7 12 1014.6 - 0.0 - - - - - - -
21/04:00pm 26.5 ESE 7 14 1014.4 - 0.0 - - - - - - -
21/03:30pm 26.6 E 7 12 1014.4 - 0.0 - - - - - - -
21/03:00pm 26.5 ESE 8 13 1014.4 - 0.0 - - - - - - -
21/02:30pm 27.1 ESE 7 11 1014.4 - 0.0 - - - - - - -
21/02:00pm 27.3 SE 7 13 1014.4 - 0.0 - - - - - - -
21/01:30pm 27.8 ESE 6 12 1014.7 - 0.0 - - - - - - -
21/01:00pm 27.7 ESE 6 11 1014.9 - 0.0 - - - - - - -
21/12:30pm 27.3 ESE 7 17 1015.5 - 0.0 - - - - - - -
21/12:00pm 27.0 ESE 6 10 1015.5 - 0.0 - - - - - - -
21/11:30am 26.5 ESE 7 12 1016.1 - 0.0 - - - - - - -
21/11:00am 27.1 E 7 12 1016.5 - 0.0 - - - - - - -

Other Formats:

Comma delimited format used in spreadsheet applications
http://www.bom.gov.au/fwo/IDQ60701/IDQ60701.94295.axf

JavaScript Object Notation format (JSON) in row-major order
http://www.bom.gov.au/fwo/IDQ60701/IDQ60701.94295.json